sensor_id;sensor_type;location;lat;lon;timestamp;temperature;humidity
28069;DHT22;15382;47.578;8.086;2022-10-16T00:09:28;13.10;99.90
28069;DHT22;15382;47.578;8.086;2022-10-16T00:19:29;13.10;99.90
28069;DHT22;15382;47.578;8.086;2022-10-16T00:29:30;13.20;99.90
28069;DHT22;15382;47.578;8.086;2022-10-16T00:39:31;13.10;99.90
28069;DHT22;15382;47.578;8.086;2022-10-16T00:49:32;13.00;99.90
28069;DHT22;15382;47.578;8.086;2022-10-16T00:59:38;13.10;99.90
28069;DHT22;15382;47.578;8.086;2022-10-16T01:40:48;13.20;99.90
28069;DHT22;15382;47.578;8.086;2022-10-16T01:51:07;13.10;99.90
28069;DHT22;15382;47.578;8.086;2022-10-16T02:01:11;13.00;99.90
28069;DHT22;15382;47.578;8.086;2022-10-16T02:11:13;13.00;99.90
28069;DHT22;15382;47.578;8.086;2022-10-16T02:21:27;12.90;99.90
28069;DHT22;15382;47.578;8.086;2022-10-16T02:31:32;12.90;99.90
28069;DHT22;15382;47.578;8.086;2022-10-16T02:41:34;12.90;99.90
28069;DHT22;15382;47.578;8.086;2022-10-16T02:51:35;12.90;99.90
28069;DHT22;15382;47.578;8.086;2022-10-16T03:01:36;12.80;99.90
28069;DHT22;15382;47.578;8.086;2022-10-16T03:11:37;12.80;99.90
28069;DHT22;15382;47.578;8.086;2022-10-16T03:21:38;12.80;99.90
28069;DHT22;15382;47.578;8.086;2022-10-16T03:31:38;12.80;99.90
28069;DHT22;15382;47.578;8.086;2022-10-16T03:41:39;12.80;99.90
28069;DHT22;15382;47.578;8.086;2022-10-16T03:51:40;12.80;99.90
28069;DHT22;15382;47.578;8.086;2022-10-16T04:01:41;12.90;99.90
28069;DHT22;15382;47.578;8.086;2022-10-16T04:11:41;12.90;99.90
28069;DHT22;15382;47.578;8.086;2022-10-16T04:21:42;12.90;99.90
28069;DHT22;15382;47.578;8.086;2022-10-16T04:31:43;12.90;99.90
28069;DHT22;15382;47.578;8.086;2022-10-16T04:41:44;12.90;99.90
28069;DHT22;15382;47.578;8.086;2022-10-16T04:51:45;12.80;99.90
28069;DHT22;15382;47.578;8.086;2022-10-16T05:01:45;12.50;99.90
28069;DHT22;15382;47.578;8.086;2022-10-16T05:11:46;12.50;99.90
28069;DHT22;15382;47.578;8.086;2022-10-16T05:21:47;12.60;99.90
28069;DHT22;15382;47.578;8.086;2022-10-16T05:31:50;12.70;99.90
28069;DHT22;15382;47.578;8.086;2022-10-16T05:41:52;12.70;99.90
28069;DHT22;15382;47.578;8.086;2022-10-16T05:51:52;12.50;99.90
28069;DHT22;15382;47.578;8.086;2022-10-16T06:01:53;12.50;99.90
28069;DHT22;15382;47.578;8.086;2022-10-16T06:11:54;12.50;99.90
28069;DHT22;15382;47.578;8.086;2022-10-16T06:21:55;12.60;99.90
28069;DHT22;15382;47.578;8.086;2022-10-16T06:31:58;12.60;99.90
28069;DHT22;15382;47.578;8.086;2022-10-16T06:41:59;12.70;99.90
28069;DHT22;15382;47.578;8.086;2022-10-16T06:52:06;12.60;99.90
28069;DHT22;15382;47.578;8.086;2022-10-16T07:02:08;13.20;99.90
28069;DHT22;15382;47.578;8.086;2022-10-16T07:12:10;14.40;99.90
28069;DHT22;15382;47.578;8.086;2022-10-16T07:22:11;15.30;99.90
28069;DHT22;15382;47.578;8.086;2022-10-16T07:32:12;16.40;99.90
28069;DHT22;15382;47.578;8.086;2022-10-16T07:42:12;17.10;99.90
28069;DHT22;15382;47.578;8.086;2022-10-16T07:52:13;18.00;99.90
28069;DHT22;15382;47.578;8.086;2022-10-16T08:02:14;18.50;99.90
28069;DHT22;15382;47.578;8.086;2022-10-16T08:12:15;18.10;99.90
28069;DHT22;15382;47.578;8.086;2022-10-16T08:22:15;18.30;99.90
28069;DHT22;15382;47.578;8.086;2022-10-16T08:32:16;18.70;99.90
28069;DHT22;15382;47.578;8.086;2022-10-16T08:52:39;19.40;99.90
28069;DHT22;15382;47.578;8.086;2022-10-16T09:03:17;19.60;99.90
28069;DHT22;15382;47.578;8.086;2022-10-16T09:13:34;20.00;99.90
28069;DHT22;15382;47.578;8.086;2022-10-16T09:23:37;20.60;99.90
28069;DHT22;15382;47.578;8.086;2022-10-16T09:33:39;20.00;99.90
28069;DHT22;15382;47.578;8.086;2022-10-16T09:44:00;21.30;99.90
28069;DHT22;15382;47.578;8.086;2022-10-16T10:04:10;20.90;99.90
28069;DHT22;15382;47.578;8.086;2022-10-16T10:14:37;21.10;99.90
28069;DHT22;15382;47.578;8.086;2022-10-16T10:24:39;20.70;99.90
28069;DHT22;15382;47.578;8.086;2022-10-16T10:45:16;22.10;99.90
28069;DHT22;15382;47.578;8.086;2022-10-16T11:05:40;23.40;99.90
28069;DHT22;15382;47.578;8.086;2022-10-16T11:15:43;23.50;99.90
28069;DHT22;15382;47.578;8.086;2022-10-16T11:25:45;23.90;99.90
28069;DHT22;15382;47.578;8.086;2022-10-16T11:46:13;24.70;99.90
28069;DHT22;15382;47.578;8.086;2022-10-16T11:56:18;24.10;99.90
28069;DHT22;15382;47.578;8.086;2022-10-16T12:06:30;24.40;99.90
28069;DHT22;15382;47.578;8.086;2022-10-16T12:16:38;24.30;99.90
28069;DHT22;15382;47.578;8.086;2022-10-16T12:26:39;24.00;99.90
28069;DHT22;15382;47.578;8.086;2022-10-16T12:36:45;23.90;99.90
28069;DHT22;15382;47.578;8.086;2022-10-16T12:46:45;23.80;99.90
28069;DHT22;15382;47.578;8.086;2022-10-16T12:57:52;24.50;99.90
28069;DHT22;15382;47.578;8.086;2022-10-16T13:07:37;25.20;99.90
28069;DHT22;15382;47.578;8.086;2022-10-16T13:18:00;25.00;99.90
28069;DHT22;15382;47.578;8.086;2022-10-16T13:28:06;24.90;99.90
28069;DHT22;15382;47.578;8.086;2022-10-16T13:38:12;24.80;99.90
28069;DHT22;15382;47.578;8.086;2022-10-16T13:48:14;25.10;99.90
28069;DHT22;15382;47.578;8.086;2022-10-16T13:58:15;25.50;99.90
28069;DHT22;15382;47.578;8.086;2022-10-16T14:08:16;25.30;99.90
28069;DHT22;15382;47.578;8.086;2022-10-16T14:18:22;26.20;99.90
28069;DHT22;15382;47.578;8.086;2022-10-16T14:28:24;27.00;99.90
28069;DHT22;15382;47.578;8.086;2022-10-16T14:38:25;27.70;99.90
28069;DHT22;15382;47.578;8.086;2022-10-16T14:48:26;27.00;99.90
28069;DHT22;15382;47.578;8.086;2022-10-16T14:58:27;26.70;99.90
28069;DHT22;15382;47.578;8.086;2022-10-16T15:08:27;26.20;99.90
28069;DHT22;15382;47.578;8.086;2022-10-16T15:18:28;24.50;99.90
28069;DHT22;15382;47.578;8.086;2022-10-16T15:28:30;25.20;99.90
28069;DHT22;15382;47.578;8.086;2022-10-16T15:38:31;24.90;99.90
28069;DHT22;15382;47.578;8.086;2022-10-16T15:48:32;24.00;99.90
28069;DHT22;15382;47.578;8.086;2022-10-16T15:58:34;23.00;99.90
28069;DHT22;15382;47.578;8.086;2022-10-16T16:08:35;22.30;99.90
28069;DHT22;15382;47.578;8.086;2022-10-16T16:18:35;21.10;99.90
28069;DHT22;15382;47.578;8.086;2022-10-16T16:28:37;19.80;99.90
28069;DHT22;15382;47.578;8.086;2022-10-16T16:38:38;19.90;99.90
28069;DHT22;15382;47.578;8.086;2022-10-16T16:48:39;19.90;99.90
28069;DHT22;15382;47.578;8.086;2022-10-16T16:58:40;20.00;99.90
28069;DHT22;15382;47.578;8.086;2022-10-16T17:08:42;18.60;99.90
28069;DHT22;15382;47.578;8.086;2022-10-16T17:18:43;18.90;99.90
28069;DHT22;15382;47.578;8.086;2022-10-16T17:28:44;18.90;99.90
28069;DHT22;15382;47.578;8.086;2022-10-16T17:38:45;18.80;99.90
28069;DHT22;15382;47.578;8.086;2022-10-16T17:48:47;18.60;99.90
28069;DHT22;15382;47.578;8.086;2022-10-16T17:58:50;18.30;99.90
28069;DHT22;15382;47.578;8.086;2022-10-16T18:08:53;17.40;99.90
28069;DHT22;15382;47.578;8.086;2022-10-16T18:18:55;16.70;99.90
28069;DHT22;15382;47.578;8.086;2022-10-16T18:28:58;17.00;99.90
28069;DHT22;15382;47.578;8.086;2022-10-16T18:39:02;17.10;99.90
28069;DHT22;15382;47.578;8.086;2022-10-16T18:49:04;17.10;99.90
28069;DHT22;15382;47.578;8.086;2022-10-16T18:59:06;17.00;99.90
28069;DHT22;15382;47.578;8.086;2022-10-16T19:09:08;16.20;99.90
28069;DHT22;15382;47.578;8.086;2022-10-16T19:19:16;15.70;99.90
28069;DHT22;15382;47.578;8.086;2022-10-16T19:29:17;16.00;99.90
28069;DHT22;15382;47.578;8.086;2022-10-16T19:39:18;15.90;99.90
28069;DHT22;15382;47.578;8.086;2022-10-16T19:49:19;15.40;99.90
28069;DHT22;15382;47.578;8.086;2022-10-16T19:59:21;15.40;99.90
28069;DHT22;15382;47.578;8.086;2022-10-16T20:09:22;15.00;99.90
28069;DHT22;15382;47.578;8.086;2022-10-16T20:19:23;14.80;99.90
28069;DHT22;15382;47.578;8.086;2022-10-16T20:29:24;14.70;99.90
28069;DHT22;15382;47.578;8.086;2022-10-16T20:39:25;14.40;99.90
28069;DHT22;15382;47.578;8.086;2022-10-16T20:49:25;14.40;99.90
28069;DHT22;15382;47.578;8.086;2022-10-16T20:59:28;14.20;99.90
28069;DHT22;15382;47.578;8.086;2022-10-16T21:09:29;14.00;99.90
28069;DHT22;15382;47.578;8.086;2022-10-16T21:19:30;13.70;99.90
28069;DHT22;15382;47.578;8.086;2022-10-16T21:29:32;13.60;99.90
28069;DHT22;15382;47.578;8.086;2022-10-16T21:39:33;13.60;99.90
28069;DHT22;15382;47.578;8.086;2022-10-16T21:49:33;13.60;99.90
28069;DHT22;15382;47.578;8.086;2022-10-16T21:59:34;13.60;99.90
28069;DHT22;15382;47.578;8.086;2022-10-16T22:09:35;13.50;99.90
28069;DHT22;15382;47.578;8.086;2022-10-16T22:19:36;13.70;99.90
28069;DHT22;15382;47.578;8.086;2022-10-16T22:29:36;13.70;99.90
28069;DHT22;15382;47.578;8.086;2022-10-16T22:39:37;13.80;99.90
28069;DHT22;15382;47.578;8.086;2022-10-16T22:49:38;13.80;99.90
28069;DHT22;15382;47.578;8.086;2022-10-16T22:59:39;13.70;99.90
28069;DHT22;15382;47.578;8.086;2022-10-16T23:09:39;13.70;99.90
28069;DHT22;15382;47.578;8.086;2022-10-16T23:19:40;13.60;99.90
28069;DHT22;15382;47.578;8.086;2022-10-16T23:29:41;13.50;99.90
28069;DHT22;15382;47.578;8.086;2022-10-16T23:39:42;13.50;99.90
28069;DHT22;15382;47.578;8.086;2022-10-16T23:49:42;13.40;99.90
28069;DHT22;15382;47.578;8.086;2022-10-16T23:59:43;13.20;99.90
